createdAt,value
2022-09-11T00:00:50.687Z,98495.41
2022-09-11T00:01:52.778Z,98493.31
2022-09-11T00:02:54.543Z,98488.53
2022-09-11T00:03:56.662Z,98476.06
2022-09-11T00:04:58.484Z,98457.72
2022-09-11T00:06:05.847Z,98489.75
2022-09-11T00:07:07.485Z,98489.25
2022-09-11T00:08:12.153Z,98478.78
2022-09-11T00:09:14.102Z,98487.97
2022-09-11T00:10:16.162Z,98487.47
2022-09-11T00:11:21.101Z,98489.34
2022-09-11T00:12:23.010Z,98490.44
2022-09-11T00:13:25.146Z,98495.38
2022-09-11T00:14:28.958Z,98492.19
2022-09-11T00:15:30.641Z,98498.66
2022-09-11T00:16:39.267Z,98492.78
2022-09-11T00:17:40.942Z,98476.91
2022-09-11T00:18:42.594Z,98488.28
2022-09-11T00:19:44.372Z,98477.13
2022-09-11T00:20:54.427Z,98493.66
2022-09-11T00:21:57.347Z,98492.56
2022-09-11T00:23:00.048Z,98496.06
2022-09-11T00:24:02.504Z,98496.38
2022-09-11T00:25:04.378Z,98494.47
2022-09-11T00:26:06.302Z,98493.19
2022-09-11T00:27:08.183Z,98491.09
2022-09-11T00:28:16.117Z,98485.13
2022-09-11T00:29:18.031Z,98491.50
2022-09-11T00:30:19.714Z,98499.88
2022-09-11T00:31:24.641Z,98489.91
2022-09-11T00:32:26.305Z,98495.63
2022-09-11T00:33:29.281Z,98493.50
2022-09-11T00:34:31.134Z,98479.91
2022-09-11T00:35:33.300Z,98502.91
2022-09-11T00:36:37.725Z,98486.22
2022-09-11T00:37:39.380Z,98485.44
2022-09-11T00:38:41.051Z,98484.94
2022-09-11T00:39:43.138Z,98475.94
2022-09-11T00:40:48.050Z,98485.19
2022-09-11T00:41:49.769Z,98494.66
2022-09-11T00:42:53.615Z,98484.47
2022-09-11T00:44:06.217Z,98487.69
2022-09-11T00:45:16.226Z,98477.41
2022-09-11T00:46:18.501Z,98487.59
2022-09-11T00:47:20.333Z,98488.69
2022-09-11T00:48:25.033Z,98479.31
2022-09-11T00:49:32.708Z,98462.56
2022-09-11T00:50:34.608Z,98470.34
2022-09-11T00:51:37.991Z,98480.69
2022-09-11T00:52:52.877Z,98474.22
2022-09-11T00:53:58.297Z,98476.91
2022-09-11T00:55:05.362Z,98475.31
2022-09-11T00:56:09.804Z,98476.44
2022-09-11T00:57:11.563Z,98475.31
2022-09-11T00:58:17.354Z,98474.22
2022-09-11T00:59:25.334Z,98469.44
2022-09-11T01:00:27.125Z,98466.75
2022-09-11T01:01:28.789Z,98471.84
2022-09-11T01:02:34.329Z,98476.91
2022-09-11T01:03:36.349Z,98470.25
2022-09-11T01:04:38.028Z,98467.94
2022-09-11T01:05:41.562Z,98465.97
2022-09-11T01:06:44.015Z,98470.03
2022-09-11T01:07:47.837Z,98464.66
2022-09-11T01:08:49.506Z,98458.25
2022-09-11T01:09:51.833Z,98462.75
2022-09-11T01:11:14.618Z,98460.66
2022-09-11T01:12:32.915Z,98462.06
2022-09-11T01:13:43.871Z,98457.75
2022-09-11T01:15:04.165Z,98465.25
2022-09-11T01:16:05.990Z,98463.34
2022-09-11T01:17:27.978Z,98464.94
2022-09-11T01:19:01.290Z,98460.97
2022-09-11T01:20:44.740Z,98457.16
2022-09-11T01:21:57.009Z,98470.94
2022-09-11T01:23:07.544Z,98469.34
2022-09-11T01:24:44.428Z,98467.94
2022-09-11T01:26:32.607Z,98463.34
2022-09-11T01:27:45.444Z,98462.06
2022-09-11T01:28:52.819Z,98459.78
2022-09-11T01:30:04.769Z,98449.00
2022-09-11T01:31:15.725Z,98449.59
2022-09-11T01:32:24.515Z,98461.25
2022-09-11T01:33:37.676Z,98455.06
2022-09-11T01:34:45.606Z,98455.69
2022-09-11T01:36:10.229Z,98439.41
2022-09-11T01:37:21.998Z,98451.41
2022-09-11T01:38:47.975Z,98450.69
2022-09-11T01:39:58.371Z,98449.38
2022-09-11T01:41:08.269Z,98442.59
2022-09-11T01:42:17.844Z,98451.78
2022-09-11T01:43:27.154Z,98437.31
2022-09-11T01:44:39.416Z,98444.59
2022-09-11T01:45:44.807Z,98448.88
2022-09-11T01:46:50.119Z,98440.00
2022-09-11T01:47:53.372Z,98443.81
2022-09-11T01:49:08.812Z,98436.84
2022-09-11T01:50:12.585Z,98446.50
2022-09-11T01:51:23.049Z,98437.44
2022-09-11T01:52:30.847Z,98422.38
2022-09-11T01:53:37.673Z,98440.22
2022-09-11T01:54:46.389Z,98444.00
2022-09-11T01:56:02.514Z,98455.56
2022-09-11T01:57:10.950Z,98445.41
2022-09-11T01:58:22.587Z,98438.72
2022-09-11T01:59:30.006Z,98446.69
2022-09-11T02:00:35.564Z,98450.00
2022-09-11T02:01:41.875Z,98436.91
2022-09-11T02:02:54.035Z,98454.78
2022-09-11T02:04:15.126Z,98448.69
2022-09-11T02:05:21.639Z,98446.97
2022-09-11T02:06:28.946Z,98431.31
2022-09-11T02:08:02.132Z,98451.09
2022-09-11T02:09:08.522Z,98451.78
2022-09-11T02:10:17.298Z,98455.56
2022-09-11T02:11:19.588Z,98444.78
2022-09-11T02:12:31.258Z,98445.59
2022-09-11T02:13:37.093Z,98453.38
2022-09-11T02:14:42.956Z,98452.88
2022-09-11T02:15:50.456Z,98450.97
2022-09-11T02:17:11.719Z,98452.06
2022-09-11T02:18:18.864Z,98456.19
2022-09-11T02:19:26.407Z,98451.16
2022-09-11T02:20:29.094Z,98451.78
2022-09-11T02:21:32.443Z,98458.75
2022-09-11T02:22:34.217Z,98455.56
2022-09-11T02:23:35.970Z,98465.22
2022-09-11T02:24:38.292Z,98446.00
2022-09-11T02:25:40.109Z,98466.03
2022-09-11T02:26:45.817Z,98472.41
2022-09-11T02:27:47.479Z,98467.44
2022-09-11T02:28:49.153Z,98469.22
2022-09-11T02:29:52.823Z,98473.09
2022-09-11T02:30:54.532Z,98465.47
2022-09-11T02:31:56.543Z,98475.63
2022-09-11T02:32:58.212Z,98470.47
2022-09-11T02:33:59.919Z,98474.25
2022-09-11T02:35:01.760Z,98480.72
2022-09-11T02:36:09.943Z,98471.34
2022-09-11T02:37:20.347Z,98470.63
2022-09-11T02:38:31.598Z,98469.03
2022-09-11T02:40:00.928Z,98483.00
2022-09-11T02:41:18.168Z,98482.22
2022-09-11T02:42:57.237Z,98483.00
2022-09-11T02:44:19.922Z,98482.50
2022-09-11T02:45:31.397Z,98477.91
2022-09-11T02:46:48.801Z,98479.81
2022-09-11T02:48:30.983Z,98486.28
2022-09-11T02:49:59.306Z,98482.28
2022-09-11T02:51:38.164Z,98482.28
2022-09-11T02:52:48.470Z,98488.97
2022-09-11T02:54:01.896Z,98485.19
2022-09-11T02:55:25.457Z,98486.28
2022-09-11T02:56:41.501Z,98482.00
2022-09-11T02:58:02.655Z,98470.53
2022-09-11T02:59:12.290Z,98483.28
2022-09-11T03:00:14.582Z,98482.00
2022-09-11T03:01:16.819Z,98489.19
2022-09-11T03:02:18.802Z,98488.09
2022-09-11T03:03:21.275Z,98483.00
2022-09-11T03:04:24.710Z,98489.47
2022-09-11T03:05:28.409Z,98485.47
2022-09-11T03:06:30.488Z,98484.69
2022-09-11T03:07:33.267Z,98486.28
2022-09-11T03:08:34.981Z,98481.28
2022-09-11T03:09:36.650Z,98491.44
2022-09-11T03:10:38.855Z,98485.56
2022-09-11T03:11:40.635Z,98491.25
2022-09-11T03:12:42.366Z,98488.25
2022-09-11T03:13:44.923Z,98484.75
2022-09-11T03:14:46.615Z,98491.63
2022-09-11T03:15:48.669Z,98488.34
2022-09-11T03:16:50.316Z,98482.75
2022-09-11T03:17:52.406Z,98485.72
2022-09-11T03:18:54.030Z,98484.13
2022-09-11T03:19:55.717Z,98488.72
2022-09-11T03:20:57.474Z,98487.44
2022-09-11T03:21:59.158Z,98492.25
2022-09-11T03:23:01.067Z,98494.13
2022-09-11T03:24:04.034Z,98492.75
2022-09-11T03:25:07.169Z,98494.13
2022-09-11T03:26:08.914Z,98478.63
2022-09-11T03:27:10.660Z,98490.94
2022-09-11T03:28:12.315Z,98490.13
2022-09-11T03:29:14.439Z,98467.16
2022-09-11T03:30:16.212Z,98477.34
2022-09-11T03:31:17.940Z,98488.00
2022-09-11T03:32:19.637Z,98493.19
2022-09-11T03:33:21.326Z,98487.81
2022-09-11T03:34:23.185Z,98489.47
2022-09-11T03:35:25.454Z,98495.72
2022-09-11T03:36:27.154Z,98493.31
2022-09-11T03:37:28.819Z,98498.22
2022-09-11T03:38:30.532Z,98495.00
2022-09-11T03:39:32.161Z,98482.97
2022-09-11T03:40:33.822Z,98479.59
2022-09-11T03:41:35.523Z,98494.25
2022-09-11T03:42:37.171Z,98495.84
2022-09-11T03:43:38.951Z,98487.84
2022-09-11T03:44:41.627Z,98495.63
2022-09-11T03:45:44.924Z,98484.06
2022-09-11T03:46:46.711Z,98492.13
2022-09-11T03:47:48.641Z,98489.44
2022-09-11T03:48:50.535Z,98490.03
2022-09-11T03:49:52.212Z,98491.03
2022-09-11T03:50:54.685Z,98494.53
2022-09-11T03:51:57.199Z,98489.66
2022-09-11T03:52:58.881Z,98492.66
2022-09-11T03:54:01.271Z,98493.22
2022-09-11T03:55:04.445Z,98499.41
2022-09-11T03:56:06.596Z,98501.00
2022-09-11T03:57:08.239Z,98494.81
2022-09-11T03:58:09.873Z,98494.81
2022-09-11T03:59:11.575Z,98500.41
2022-09-11T04:00:13.363Z,98487.66
2022-09-11T04:01:19.142Z,98493.69
2022-09-11T04:02:23.305Z,98486.75
2022-09-11T04:03:25.182Z,98498.22
2022-09-11T04:04:26.961Z,98496.91
2022-09-11T04:05:29.431Z,98499.78
2022-09-11T04:06:34.420Z,98505.97
2022-09-11T04:07:36.099Z,98498.41
2022-09-11T04:08:41.330Z,98489.94
2022-09-11T04:09:42.978Z,98500.31
2022-09-11T04:10:44.642Z,98497.31
2022-09-11T04:11:46.288Z,98499.72
2022-09-11T04:12:48.893Z,98494.13
2022-09-11T04:13:51.319Z,98495.53
2022-09-11T04:14:52.996Z,98498.69
2022-09-11T04:15:58.930Z,98492.53
2022-09-11T04:17:00.625Z,98493.03
2022-09-11T04:18:06.338Z,98497.09
2022-09-11T04:19:09.765Z,98494.94
2022-09-11T04:20:11.538Z,98486.66
2022-09-11T04:21:15.955Z,98495.16
2022-09-11T04:22:17.651Z,98494.00
2022-09-11T04:23:19.289Z,98497.69
2022-09-11T04:24:21.094Z,98499.00
2022-09-11T04:25:22.720Z,98480.84
2022-09-11T04:26:25.448Z,98504.22
2022-09-11T04:27:27.280Z,98486.69
2022-09-11T04:28:30.557Z,98502.59
2022-09-11T04:29:34.040Z,98501.34
2022-09-11T04:30:39.511Z,98485.41
2022-09-11T04:31:41.460Z,98499.41
2022-09-11T04:32:43.273Z,98499.84
2022-09-11T04:33:45.897Z,98502.34
2022-09-11T04:34:47.596Z,98495.66
2022-09-11T04:35:49.278Z,98497.69
2022-09-11T04:36:50.932Z,98496.09
2022-09-11T04:37:52.588Z,98496.28
2022-09-11T04:38:56.853Z,98501.69
2022-09-11T04:39:58.590Z,98492.28
2022-09-11T04:41:01.959Z,98495.84
2022-09-11T04:42:04.515Z,98496.31
2022-09-11T04:43:06.716Z,98495.38
2022-09-11T04:44:08.462Z,98493.47
2022-09-11T04:45:10.606Z,98491.50
2022-09-11T04:46:17.660Z,98494.97
2022-09-11T04:47:19.359Z,98489.81
2022-09-11T04:48:20.996Z,98499.31
2022-09-11T04:49:23.505Z,98501.13
2022-09-11T04:50:25.253Z,98484.97
2022-09-11T04:51:30.848Z,98505.19
2022-09-11T04:52:33.827Z,98499.66
2022-09-11T04:53:39.130Z,98488.38
2022-09-11T04:54:41.300Z,98506.78
2022-09-11T04:55:42.951Z,98510.28
2022-09-11T04:56:44.641Z,98498.81
2022-09-11T04:57:46.532Z,98506.84
2022-09-11T04:58:55.222Z,98506.66
2022-09-11T04:59:58.528Z,98510.44
2022-09-11T05:01:00.832Z,98513.28
2022-09-11T05:02:03.631Z,98504.53
2022-09-11T05:03:05.320Z,98509.47
2022-09-11T05:04:08.211Z,98513.53
2022-09-11T05:05:10.021Z,98509.16
2022-09-11T05:06:15.484Z,98514.69
2022-09-11T05:07:17.122Z,98507.47
2022-09-11T05:08:19.124Z,98510.41
2022-09-11T05:09:20.986Z,98512.59
2022-09-11T05:10:22.622Z,98507.91
2022-09-11T05:11:26.100Z,98487.13
2022-09-11T05:12:28.794Z,98509.75
2022-09-11T05:13:36.055Z,98495.16
2022-09-11T05:14:38.216Z,98503.44
2022-09-11T05:15:39.921Z,98504.97
2022-09-11T05:16:41.592Z,98512.50
2022-09-11T05:17:43.272Z,98507.81
2022-09-11T05:18:52.043Z,98511.44
2022-09-11T05:19:53.778Z,98488.53
2022-09-11T05:21:07.173Z,98504.41
2022-09-11T05:22:09.135Z,98508.06
2022-09-11T05:23:13.804Z,98500.69
2022-09-11T05:24:15.454Z,98489.72
2022-09-11T05:25:18.693Z,98509.41
2022-09-11T05:26:25.924Z,98503.88
2022-09-11T05:27:27.706Z,98503.88
2022-09-11T05:28:30.546Z,98511.72
2022-09-11T05:29:33.134Z,98502.88
2022-09-11T05:30:34.830Z,98502.88
2022-09-11T05:31:37.360Z,98504.34
2022-09-11T05:32:39.155Z,98506.06
2022-09-11T05:33:40.943Z,98487.50
2022-09-11T05:34:42.682Z,98494.09
2022-09-11T05:35:44.380Z,98501.28
2022-09-11T05:36:46.097Z,98490.72
2022-09-11T05:37:47.763Z,98491.97
2022-09-11T05:38:49.457Z,98493.78
2022-09-11T05:39:52.069Z,98505.66
2022-09-11T05:40:53.786Z,98509.13
2022-09-11T05:41:58.276Z,98498.84
2022-09-11T05:42:59.909Z,98505.94
2022-09-11T05:44:01.907Z,98508.25
2022-09-11T05:45:03.864Z,98505.19
2022-09-11T05:46:07.338Z,98502.13
2022-09-11T05:47:09.512Z,98498.44
2022-09-11T05:48:11.404Z,98515.47
2022-09-11T05:49:13.179Z,98514.25
2022-09-11T05:50:14.945Z,98512.13
2022-09-11T05:51:21.845Z,98514.19
2022-09-11T05:52:24.955Z,98518.94
2022-09-11T05:53:28.418Z,98514.53
2022-09-11T05:54:30.096Z,98516.22
2022-09-11T05:55:35.618Z,98517.25
2022-09-11T05:56:37.273Z,98512.22
2022-09-11T05:57:38.923Z,98516.16
2022-09-11T05:58:40.654Z,98515.28
2022-09-11T05:59:42.374Z,98502.41
2022-09-11T06:00:46.731Z,98507.16
2022-09-11T06:01:48.489Z,98505.59
2022-09-11T06:02:51.032Z,98504.50
2022-09-11T06:03:53.334Z,98498.97
2022-09-11T06:04:56.631Z,98503.56
2022-09-11T06:06:01.455Z,98509.34
2022-09-11T06:07:03.272Z,98507.03
2022-09-11T06:08:05.029Z,98510.84
2022-09-11T06:09:07.505Z,98496.19
2022-09-11T06:10:09.562Z,98509.47
2022-09-11T06:11:17.432Z,98509.63
2022-09-11T06:12:19.234Z,98520.59
2022-09-11T06:13:20.908Z,98515.03
2022-09-11T06:14:22.605Z,98494.84
2022-09-11T06:15:45.792Z,98504.25
2022-09-11T06:16:48.426Z,98490.97
2022-09-11T06:17:50.094Z,98510.34
2022-09-11T06:18:54.350Z,98509.06
2022-09-11T06:19:56.034Z,98516.34
2022-09-11T06:21:22.154Z,98512.28
2022-09-11T06:22:23.964Z,98516.97
2022-09-11T06:23:26.172Z,98523.44
2022-09-11T06:24:28.331Z,98522.25
2022-09-11T06:25:29.980Z,98531.44
2022-09-11T06:26:31.672Z,98528.31
2022-09-11T06:27:33.330Z,98532.19
2022-09-11T06:28:36.410Z,98521.41
2022-09-11T06:29:38.245Z,98522.72
2022-09-11T06:30:41.267Z,98526.88
2022-09-11T06:31:43.367Z,98527.25
2022-09-11T06:32:48.563Z,98523.13
2022-09-11T06:33:51.461Z,98507.03
2022-09-11T06:34:54.584Z,98521.56
2022-09-11T06:35:58.638Z,98516.47
2022-09-11T06:37:00.342Z,98518.38
2022-09-11T06:38:02.927Z,98520.59
2022-09-11T06:39:04.980Z,98521.06
2022-09-11T06:40:07.233Z,98513.88
2022-09-11T06:41:14.022Z,98515.94
2022-09-11T06:42:15.814Z,98511.56
2022-09-11T06:43:18.145Z,98510.19
2022-09-11T06:44:20.283Z,98509.38
2022-09-11T06:45:21.935Z,98515.84
2022-09-11T06:46:25.021Z,98508.31
2022-09-11T06:47:27.210Z,98514.44
2022-09-11T06:48:30.490Z,98516.25
2022-09-11T06:49:32.335Z,98514.56
2022-09-11T06:50:41.554Z,98513.13
2022-09-11T06:51:43.300Z,98517.28
2022-09-11T06:52:48.853Z,98523.88
2022-09-11T06:53:58.265Z,98509.41
2022-09-11T06:54:59.935Z,98518.47
2022-09-11T06:56:02.909Z,98515.41
2022-09-11T06:57:04.757Z,98526.22
2022-09-11T06:58:07.894Z,98517.78
2022-09-11T06:59:10.282Z,98518.84
2022-09-11T07:00:12.382Z,98517.13
2022-09-11T07:01:16.774Z,98515.44
2022-09-11T07:02:18.792Z,98511.34
2022-09-11T07:03:20.481Z,98512.06
2022-09-11T07:04:23.463Z,98515.06
2022-09-11T07:05:25.939Z,98513.69
2022-09-11T07:06:30.317Z,98505.06
2022-09-11T07:07:32.125Z,98519.41
2022-09-11T07:08:33.794Z,98512.47
2022-09-11T07:09:35.442Z,98522.19
2022-09-11T07:10:37.100Z,98514.19
2022-09-11T07:11:40.388Z,98495.81
2022-09-11T07:12:42.093Z,98517.16
2022-09-11T07:13:44.423Z,98510.81
2022-09-11T07:14:47.541Z,98527.19
2022-09-11T07:15:49.547Z,98517.47
2022-09-11T07:16:53.013Z,98520.84
2022-09-11T07:17:55.488Z,98522.44
2022-09-11T07:18:58.213Z,98528.50
2022-09-11T07:19:59.936Z,98529.34
2022-09-11T07:21:05.422Z,98530.03
2022-09-11T07:22:07.081Z,98528.50
2022-09-11T07:23:09.106Z,98528.13
2022-09-11T07:24:10.856Z,98519.25
2022-09-11T07:25:13.072Z,98534.22
2022-09-11T07:26:15.577Z,98532.25
2022-09-11T07:27:17.453Z,98525.31
2022-09-11T07:28:19.772Z,98535.22
2022-09-11T07:29:22.441Z,98532.50
2022-09-11T07:30:24.493Z,98529.03
2022-09-11T07:31:29.509Z,98534.50
2022-09-11T07:32:31.265Z,98517.31
2022-09-11T07:33:33.004Z,98521.22
2022-09-11T07:34:34.797Z,98513.16
2022-09-11T07:35:37.580Z,98534.09
2022-09-11T07:36:39.255Z,98538.38
2022-09-11T07:37:40.901Z,98534.59
2022-09-11T07:38:47.210Z,98531.47
2022-09-11T07:39:48.971Z,98525.59
2022-09-11T07:40:54.481Z,98529.13
2022-09-11T07:41:56.171Z,98535.09
2022-09-11T07:42:57.815Z,98536.25
2022-09-11T07:44:00.700Z,98537.34
2022-09-11T07:45:02.340Z,98533.13
2022-09-11T07:46:05.529Z,98537.22
2022-09-11T07:47:07.273Z,98537.63
2022-09-11T07:48:09.025Z,98540.28
2022-09-11T07:49:11.387Z,98540.63
2022-09-11T07:50:13.155Z,98542.25
2022-09-11T07:51:17.266Z,98537.28
2022-09-11T07:52:20.681Z,98534.94
2022-09-11T07:53:22.383Z,98540.94
2022-09-11T07:54:24.103Z,98544.50
2022-09-11T07:55:26.601Z,98536.66
2022-09-11T07:56:28.763Z,98535.47
2022-09-11T07:57:31.199Z,98542.16
2022-09-11T07:58:38.272Z,98502.81
2022-09-11T07:59:39.930Z,98535.09
2022-09-11T08:00:41.688Z,98535.13
2022-09-11T08:01:44.337Z,98530.78
2022-09-11T08:02:47.581Z,98535.88
2022-09-11T08:03:54.722Z,98539.00
2022-09-11T08:04:56.394Z,98541.38
2022-09-11T08:05:59.543Z,98539.00
2022-09-11T08:07:01.274Z,98542.09
2022-09-11T08:08:03.023Z,98536.94
2022-09-11T08:09:07.549Z,98543.59
2022-09-11T08:10:26.563Z,98530.03
2022-09-11T08:11:31.903Z,98539.97
2022-09-11T08:12:34.846Z,98541.84
2022-09-11T08:13:37.508Z,98524.09
2022-09-11T08:14:39.258Z,98531.56
2022-09-11T08:15:47.712Z,98531.28
2022-09-11T08:16:49.495Z,98533.31
2022-09-11T08:17:51.905Z,98531.78
2022-09-11T08:18:54.316Z,98531.69
2022-09-11T08:19:57.232Z,98523.03
2022-09-11T08:21:16.907Z,98516.84
2022-09-11T08:22:18.611Z,98516.41
2022-09-11T08:23:22.203Z,98523.13
2022-09-11T08:24:24.558Z,98521.94
2022-09-11T08:25:29.007Z,98513.75
2022-09-11T08:26:31.337Z,98509.09
2022-09-11T08:27:33.013Z,98513.47
2022-09-11T08:28:36.100Z,98502.09
2022-09-11T08:29:37.790Z,98502.03
2022-09-11T08:30:39.661Z,98509.50
2022-09-11T08:31:41.296Z,98498.47
2022-09-11T08:32:42.929Z,98510.56
2022-09-11T08:33:45.866Z,98510.94
2022-09-11T08:34:48.167Z,98506.28
2022-09-11T08:35:49.837Z,98502.03
2022-09-11T08:36:52.116Z,98504.00
2022-09-11T08:37:55.740Z,98496.16
2022-09-11T08:39:00.411Z,98499.34
2022-09-11T08:40:02.504Z,98504.81
2022-09-11T08:41:25.007Z,98499.72
2022-09-11T08:42:28.959Z,98491.88
2022-09-11T08:43:39.122Z,98495.03
2022-09-11T08:44:50.516Z,98487.88
2022-09-11T08:45:59.150Z,98484.78
2022-09-11T08:47:07.037Z,98499.31
2022-09-11T08:48:12.410Z,98481.25
2022-09-11T08:49:27.370Z,98493.00
2022-09-11T08:50:40.147Z,98487.16
2022-09-11T08:51:44.865Z,98485.56
2022-09-11T08:52:48.854Z,98488.72
2022-09-11T08:53:51.595Z,98489.13
2022-09-11T08:54:57.973Z,98486.72
2022-09-11T08:56:11.871Z,98490.66
2022-09-11T08:57:22.422Z,98489.06
2022-09-11T08:58:30.125Z,98482.41
2022-09-11T08:59:37.269Z,98480.81
2022-09-11T09:00:44.520Z,98479.66
2022-09-11T09:02:10.709Z,98483.56
2022-09-11T09:03:35.795Z,98476.09
2022-09-11T09:05:01.728Z,98473.34
2022-09-11T09:06:25.478Z,98471.78
2022-09-11T09:07:38.655Z,98469.03
2022-09-11T09:09:05.246Z,98472.56
2022-09-11T09:10:42.948Z,98474.53
2022-09-11T09:12:04.241Z,98443.09
2022-09-11T09:13:43.341Z,98462.72
2022-09-11T09:15:14.413Z,98464.31
2022-09-11T09:16:33.151Z,98475.69
2022-09-11T09:17:46.646Z,98465.88
2022-09-11T09:19:04.124Z,98484.75
2022-09-11T09:20:21.248Z,98470.59
2022-09-11T09:21:36.241Z,98458.81
2022-09-11T09:22:48.138Z,98455.69
2022-09-11T09:23:54.058Z,98456.47
2022-09-11T09:25:01.398Z,98457.22
2022-09-11T09:26:03.109Z,98465.06
2022-09-11T09:27:06.557Z,98464.28
2022-09-11T09:28:32.668Z,98458.00
2022-09-11T09:29:38.788Z,98469.78
2022-09-11T09:30:49.510Z,98464.31
2022-09-11T09:31:53.671Z,98461.94
2022-09-11T09:33:00.192Z,98457.59
2022-09-11T09:34:13.482Z,98466.22
2022-09-11T09:35:43.272Z,98455.22
2022-09-11T09:37:04.536Z,98457.59
2022-09-11T09:38:12.190Z,98458.78
2022-09-11T09:39:17.033Z,98459.56
2022-09-11T09:40:19.257Z,98452.84
2022-09-11T09:41:26.777Z,98455.16
2022-09-11T09:42:52.526Z,98448.44
2022-09-11T09:44:19.728Z,98450.34
2022-09-11T09:45:46.224Z,98458.22
2022-09-11T09:46:51.458Z,98441.34
2022-09-11T09:47:53.563Z,98453.59
2022-09-11T09:48:56.220Z,98447.38
2022-09-11T09:49:58.601Z,98440.28
2022-09-11T09:51:00.972Z,98450.50
2022-09-11T09:52:16.890Z,98452.44
2022-09-11T09:53:51.053Z,98446.53
2022-09-11T09:55:01.839Z,98435.47
2022-09-11T09:56:05.748Z,98424.09
2022-09-11T09:57:10.622Z,98432.28
2022-09-11T09:58:12.259Z,98436.97
2022-09-11T09:59:18.280Z,98421.72
2022-09-11T10:00:20.414Z,98437.38
2022-09-11T10:01:51.028Z,98433.81
2022-09-11T10:02:56.569Z,98428.28
2022-09-11T10:04:13.445Z,98430.13
2022-09-11T10:05:18.230Z,98434.38
2022-09-11T10:06:22.127Z,98424.50
2022-09-11T10:07:24.550Z,98430.09
2022-09-11T10:08:29.104Z,98427.38
2022-09-11T10:09:31.345Z,98429.81
2022-09-11T10:10:40.842Z,98435.38
2022-09-11T10:11:43.402Z,98426.38
2022-09-11T10:12:45.823Z,98433.06
2022-09-11T10:13:54.622Z,98425.56
2022-09-11T10:14:59.707Z,98429.91
2022-09-11T10:16:19.512Z,98422.78
2022-09-11T10:17:31.426Z,98428.28
2022-09-11T10:18:42.891Z,98428.59
2022-09-11T10:19:45.152Z,98433.34
2022-09-11T10:20:46.786Z,98421.50
2022-09-11T10:21:48.471Z,98427.75
2022-09-11T10:22:51.167Z,98416.66
2022-09-11T10:23:59.787Z,98422.94
2022-09-11T10:25:16.628Z,98422.56
2022-09-11T10:26:38.674Z,98422.63
2022-09-11T10:28:05.899Z,98425.38
2022-09-11T10:29:14.299Z,98420.72
2022-09-11T10:30:36.623Z,98422.00
2022-09-11T10:31:48.875Z,98423.56
2022-09-11T10:32:50.791Z,98419.97
2022-09-11T10:33:57.173Z,98423.06
2022-09-11T10:34:59.387Z,98423.00
2022-09-11T10:36:04.368Z,98422.22
2022-09-11T10:37:24.261Z,98418.66
2022-09-11T10:38:41.143Z,98420.53
2022-09-11T10:39:47.207Z,98419.75
2022-09-11T10:41:05.538Z,98415.94
2022-09-11T10:42:17.775Z,98403.00
2022-09-11T10:43:25.631Z,98401.78
2022-09-11T10:44:28.717Z,98411.59
2022-09-11T10:45:31.760Z,98402.09
2022-09-11T10:46:41.492Z,98408.00
2022-09-11T10:47:45.855Z,98403.56
2022-09-11T10:49:20.646Z,98396.94
2022-09-11T10:50:27.037Z,98407.34
2022-09-11T10:51:32.589Z,98398.25
2022-09-11T10:52:52.500Z,98381.34
2022-09-11T10:54:18.308Z,98395.00
2022-09-11T10:55:20.879Z,98401.69
2022-09-11T10:56:23.126Z,98396.94
2022-09-11T10:57:28.567Z,98397.63
2022-09-11T10:58:37.243Z,98383.38
2022-09-11T11:00:08.359Z,98390.44
2022-09-11T11:01:10.146Z,98393.81
2022-09-11T11:02:20.998Z,98393.06
2022-09-11T11:03:28.010Z,98396.63
2022-09-11T11:04:32.650Z,98396.28
2022-09-11T11:06:26.716Z,98367.34
2022-09-11T11:08:03.596Z,98393.25
2022-09-11T11:09:21.603Z,98390.97
2022-09-11T11:10:40.844Z,98395.00
2022-09-11T11:11:49.457Z,98394.63
2022-09-11T11:12:51.065Z,98397.03
2022-09-11T11:14:28.191Z,98382.50
2022-09-11T11:16:13.107Z,98387.22
2022-09-11T11:17:38.997Z,98388.03
2022-09-11T11:18:59.033Z,98386.47
2022-09-11T11:20:00.758Z,98387.28
2022-09-11T11:21:21.766Z,98382.91
2022-09-11T11:22:45.373Z,98381.69
2022-09-11T11:24:28.312Z,98380.81
2022-09-11T11:25:42.243Z,98388.69
2022-09-11T11:26:46.493Z,98381.63
2022-09-11T11:28:13.005Z,98373.00
2022-09-11T11:29:47.080Z,98372.66
2022-09-11T11:31:46.754Z,98336.06
2022-09-11T11:33:02.698Z,98368.34
2022-09-11T11:34:35.537Z,98359.72
2022-09-11T11:36:02.621Z,98365.22
2022-09-11T11:37:18.145Z,98358.53
2022-09-11T11:38:29.928Z,98351.44
2022-09-11T11:39:38.278Z,98355.41
2022-09-11T11:40:47.737Z,98351.03
2022-09-11T11:42:12.180Z,98351.44
2022-09-11T11:43:17.658Z,98341.16
2022-09-11T11:44:32.038Z,98331.31
2022-09-11T11:45:38.942Z,98332.81
2022-09-11T11:46:46.150Z,98348.88
2022-09-11T11:47:49.037Z,98336.72
2022-09-11T11:49:02.067Z,98353.50
2022-09-11T11:50:21.634Z,98344.06
2022-09-11T11:51:32.481Z,98345.25
2022-09-11T11:53:09.340Z,98344.47
2022-09-11T11:54:27.897Z,98338.97
2022-09-11T11:55:35.396Z,98347.22
2022-09-11T11:56:57.535Z,98331.84
2022-09-11T11:58:28.097Z,98341.94
2022-09-11T11:59:46.904Z,98340.69
2022-09-11T12:00:56.768Z,98335.56
2022-09-11T12:02:05.782Z,98326.13
2022-09-11T12:03:18.208Z,98322.91
2022-09-11T12:04:44.345Z,98330.72
2022-09-11T12:05:46.039Z,98312.00
2022-09-11T12:06:47.877Z,98303.66
2022-09-11T12:07:50.928Z,98316.78
2022-09-11T12:08:52.874Z,98330.16
2022-09-11T12:09:57.529Z,98325.34
2022-09-11T12:11:08.043Z,98326.09
2022-09-11T12:12:10.106Z,98328.06
2022-09-11T12:13:17.907Z,98317.31
2022-09-11T12:14:29.163Z,98321.91
2022-09-11T12:15:34.481Z,98329.81
2022-09-11T12:16:36.690Z,98315.22
2022-09-11T12:17:40.283Z,98319.22
2022-09-11T12:19:00.761Z,98314.06
2022-09-11T12:20:11.487Z,98317.25
2022-09-11T12:21:25.507Z,98317.56
2022-09-11T12:22:38.641Z,98316.88
2022-09-11T12:23:47.356Z,98316.06
2022-09-11T12:24:52.519Z,98313.31
2022-09-11T12:26:17.362Z,98300.72
2022-09-11T12:27:34.575Z,98311.69
2022-09-11T12:28:38.053Z,98313.25
2022-09-11T12:29:55.148Z,98312.16
2022-09-11T12:31:01.633Z,98298.53
2022-09-11T12:32:03.307Z,98299.69
2022-09-11T12:33:47.299Z,98304.69
2022-09-11T12:34:54.886Z,98301.16
2022-09-11T12:35:57.076Z,98301.22
2022-09-11T12:37:02.360Z,98305.84
2022-09-11T12:38:06.991Z,98305.06
2022-09-11T12:39:20.821Z,98294.88
2022-09-11T12:40:54.216Z,98297.06
2022-09-11T12:42:23.905Z,98293.09
2022-09-11T12:43:29.978Z,98296.22
2022-09-11T12:44:51.943Z,98304.34
2022-09-11T12:45:53.829Z,98294.84
2022-09-11T12:46:58.350Z,98299.59
2022-09-11T12:48:09.944Z,98299.22
2022-09-11T12:49:28.537Z,98299.88
2022-09-11T12:50:30.390Z,98296.84
2022-09-11T12:51:37.838Z,98302.94
2022-09-11T12:52:52.040Z,98297.38
2022-09-11T12:54:12.533Z,98294.94
2022-09-11T12:55:37.506Z,98293.06
2022-09-11T12:56:47.556Z,98289.25
2022-09-11T12:57:51.479Z,98300.63
2022-09-11T12:58:59.053Z,98295.63
2022-09-11T13:00:04.799Z,98291.03
2022-09-11T13:01:15.231Z,98296.22
2022-09-11T13:02:42.192Z,98291.16
2022-09-11T13:04:15.654Z,98302.41
2022-09-11T13:05:34.492Z,98296.03
2022-09-11T13:06:58.845Z,98295.06
2022-09-11T13:08:05.225Z,98294.16
2022-09-11T13:09:16.678Z,98294.06
2022-09-11T13:10:35.949Z,98287.44
2022-09-11T13:11:44.158Z,98290.13
2022-09-11T13:12:54.111Z,98290.03
2022-09-11T13:13:55.790Z,98293.53